createdAt,value
2023-03-15T00:02:53.493Z,92.79
2023-03-15T00:05:58.962Z,92.61
2023-03-15T00:09:03.157Z,92.29
2023-03-15T00:12:06.659Z,92.12
2023-03-15T00:15:15.713Z,92.57
2023-03-15T00:18:20.611Z,92.20
2023-03-15T00:21:24.008Z,92.14
2023-03-15T00:24:28.031Z,92.28
2023-03-15T00:27:30.754Z,92.08
2023-03-15T00:30:33.796Z,92.30
2023-03-15T00:33:39.530Z,92.27
2023-03-15T00:36:56.126Z,92.11
2023-03-15T00:40:00.218Z,92.32
2023-03-15T00:43:03.458Z,92.51
2023-03-15T00:46:12.634Z,92.96
2023-03-15T00:49:15.828Z,92.52
2023-03-15T00:52:19.398Z,92.49
2023-03-15T00:55:26.939Z,92.27
2023-03-15T00:58:29.741Z,92.05
2023-03-15T01:01:34.609Z,92.26
2023-03-15T01:04:53.091Z,93.05
2023-03-15T01:07:58.074Z,93.45
2023-03-15T01:11:05.072Z,93.42
2023-03-15T01:14:08.881Z,93.60
2023-03-15T01:17:11.864Z,94.11
2023-03-15T01:20:17.521Z,94.33
2023-03-15T01:23:26.644Z,94.35
2023-03-15T01:26:34.501Z,94.01
2023-03-15T01:32:53.733Z,93.74
2023-03-15T01:36:02.002Z,93.70
2023-03-15T01:39:05.567Z,94.04
2023-03-15T01:42:10.094Z,93.97
2023-03-15T01:45:46.073Z,93.93
2023-03-15T01:48:52.539Z,94.32
2023-03-15T01:52:02.123Z,94.06
2023-03-15T01:55:10.164Z,94.09
2023-03-15T01:58:15.099Z,94.07
2023-03-15T02:01:20.040Z,93.89
2023-03-15T02:04:28.451Z,93.76
2023-03-15T02:07:34.631Z,93.98
2023-03-15T02:10:41.676Z,93.85
2023-03-15T02:13:46.140Z,93.93
2023-03-15T02:16:50.088Z,93.50
2023-03-15T02:20:00.652Z,93.45
2023-03-15T02:23:07.538Z,93.90
2023-03-15T02:26:24.922Z,93.55
2023-03-15T02:29:30.607Z,93.47
2023-03-15T02:32:33.346Z,93.63
2023-03-15T02:35:37.891Z,93.51
2023-03-15T02:38:45.854Z,93.32
2023-03-15T02:41:51.986Z,93.33
2023-03-15T02:44:59.504Z,93.13
2023-03-15T02:48:03.852Z,93.68
2023-03-15T02:51:06.800Z,93.54
2023-03-15T02:54:09.548Z,93.89
2023-03-15T02:57:12.938Z,93.72
2023-03-15T03:00:17.518Z,94.39
2023-03-15T03:03:20.303Z,94.08
2023-03-15T03:06:26.987Z,94.46
2023-03-15T03:09:38.024Z,94.59
2023-03-15T03:12:40.857Z,94.59
2023-03-15T03:16:00.790Z,94.81
2023-03-15T03:19:05.618Z,94.90
2023-03-15T03:22:08.426Z,94.83
2023-03-15T03:25:19.004Z,94.93
2023-03-15T03:28:23.048Z,94.65
2023-03-15T03:31:28.822Z,94.60
2023-03-15T03:34:31.488Z,94.19
2023-03-15T03:37:36.683Z,94.15
2023-03-15T03:40:44.757Z,94.23
2023-03-15T03:43:47.512Z,94.56
2023-03-15T03:46:51.589Z,94.35
2023-03-15T03:49:56.711Z,95.02
2023-03-15T03:52:59.416Z,95.07
2023-03-15T03:56:04.106Z,94.92
2023-03-15T03:59:09.109Z,94.90
2023-03-15T04:02:13.799Z,95.17
2023-03-15T04:05:19.532Z,95.18
2023-03-15T04:08:23.247Z,95.19
2023-03-15T04:11:26.712Z,95.60
2023-03-15T04:14:29.463Z,95.58
2023-03-15T04:17:36.496Z,95.48
2023-03-15T04:20:39.194Z,95.61
2023-03-15T04:23:51.006Z,95.52
2023-03-15T04:26:57.877Z,95.81
2023-03-15T04:30:07.550Z,95.57
2023-03-15T04:33:12.366Z,95.51
2023-03-15T04:36:27.287Z,95.68
2023-03-15T04:39:30.214Z,95.99
2023-03-15T04:42:32.974Z,95.86
2023-03-15T04:45:35.997Z,95.61
2023-03-15T04:48:40.038Z,95.68
2023-03-15T04:51:45.514Z,95.28
2023-03-15T04:54:48.257Z,95.70
2023-03-15T04:57:52.544Z,95.37
2023-03-15T05:00:58.370Z,95.24
2023-03-15T05:04:03.604Z,94.69
2023-03-15T05:07:08.543Z,94.96
2023-03-15T05:10:13.300Z,94.72
2023-03-15T05:13:15.956Z,95.14
2023-03-15T05:16:18.788Z,95.29
2023-03-15T05:19:34.601Z,95.20
2023-03-15T05:22:38.131Z,95.43
2023-03-15T05:25:43.176Z,95.47
2023-03-15T05:28:59.799Z,95.08
2023-03-15T05:32:04.424Z,95.18
2023-03-15T05:35:09.936Z,95.51
2023-03-15T05:38:14.533Z,95.35
2023-03-15T05:41:18.348Z,94.45
2023-03-15T05:44:23.633Z,93.93
2023-03-15T05:47:27.564Z,94.23
2023-03-15T05:50:34.460Z,94.31
2023-03-15T05:53:37.152Z,94.29
2023-03-15T05:56:40.010Z,94.56
2023-03-15T05:59:43.145Z,94.22
2023-03-15T06:02:49.676Z,93.55
2023-03-15T06:05:57.374Z,93.37
2023-03-15T06:09:03.242Z,93.19
2023-03-15T06:12:06.843Z,93.11
2023-03-15T06:15:13.070Z,93.20
2023-03-15T06:18:17.390Z,93.72
2023-03-15T06:21:28.968Z,93.95
2023-03-15T06:24:33.276Z,93.98
2023-03-15T06:27:36.069Z,95.03
2023-03-15T06:30:39.887Z,94.44
2023-03-15T06:33:42.986Z,91.81
2023-03-15T06:36:47.413Z,90.85
2023-03-15T06:39:51.089Z,87.90
2023-03-15T06:42:54.594Z,86.91
2023-03-15T06:45:59.956Z,86.85
2023-03-15T06:49:03.576Z,87.22
2023-03-15T06:52:08.489Z,86.12
2023-03-15T06:55:12.679Z,86.95
2023-03-15T06:58:15.561Z,86.96
2023-03-15T07:01:18.221Z,86.95
2023-03-15T07:04:21.628Z,86.93
2023-03-15T07:07:25.769Z,86.86
2023-03-15T07:10:28.461Z,86.30
2023-03-15T07:13:31.114Z,86.38
2023-03-15T07:16:33.843Z,86.41
2023-03-15T07:19:43.912Z,86.26
2023-03-15T07:22:50.766Z,84.86
2023-03-15T07:25:55.495Z,85.39
2023-03-15T07:28:59.623Z,85.34
2023-03-15T07:32:02.393Z,84.85
2023-03-15T07:35:05.557Z,84.83
2023-03-15T07:38:13.065Z,84.77
2023-03-15T07:41:15.725Z,84.66
2023-03-15T07:44:18.529Z,84.88
2023-03-15T07:47:21.249Z,84.88
2023-03-15T07:50:23.930Z,84.95
2023-03-15T07:53:28.252Z,84.49
2023-03-15T07:56:31.226Z,84.37
2023-03-15T07:59:33.876Z,84.36
2023-03-15T08:02:36.826Z,84.31
2023-03-15T08:05:39.968Z,84.36
2023-03-15T08:08:45.412Z,84.20
2023-03-15T08:11:48.065Z,84.41
2023-03-15T08:14:51.436Z,84.28
2023-03-15T08:17:54.236Z,84.27
2023-03-15T08:20:57.191Z,84.07
2023-03-15T08:24:02.047Z,84.06
2023-03-15T08:27:05.668Z,83.94
2023-03-15T08:30:12.057Z,83.53
2023-03-15T08:33:17.613Z,83.50
2023-03-15T08:36:21.141Z,82.90
2023-03-15T08:39:27.197Z,82.92
2023-03-15T08:42:29.859Z,82.65
2023-03-15T08:45:37.498Z,82.69
2023-03-15T08:48:45.595Z,82.94
2023-03-15T08:51:49.148Z,82.86
2023-03-15T08:54:53.239Z,82.49
2023-03-15T08:57:55.917Z,82.63
2023-03-15T09:00:58.646Z,82.00
2023-03-15T09:04:09.762Z,82.23
2023-03-15T09:07:13.422Z,82.46
2023-03-15T09:10:18.567Z,82.26
2023-03-15T09:13:28.805Z,82.47
2023-03-15T09:16:31.508Z,82.57
2023-03-15T09:19:34.384Z,82.77
2023-03-15T09:22:39.910Z,81.82
2023-03-15T09:25:44.027Z,82.43
2023-03-15T09:28:46.721Z,82.42
2023-03-15T09:31:50.040Z,82.49
2023-03-15T09:34:52.844Z,82.15
2023-03-15T09:37:55.642Z,82.30
2023-03-15T09:41:03.790Z,82.33
2023-03-15T09:44:16.107Z,82.41
2023-03-15T09:47:33.218Z,82.44
2023-03-15T09:50:48.433Z,82.47
2023-03-15T09:53:58.454Z,82.30
2023-03-15T09:57:05.932Z,81.39
2023-03-15T10:00:14.428Z,81.47
2023-03-15T10:03:26.135Z,81.36
2023-03-15T10:06:36.566Z,80.72
2023-03-15T10:09:44.423Z,81.29
2023-03-15T10:12:56.956Z,81.25
2023-03-15T10:16:05.114Z,81.67
2023-03-15T10:19:18.980Z,81.53
2023-03-15T10:22:29.027Z,81.28
2023-03-15T10:25:33.662Z,81.43
2023-03-15T10:28:38.923Z,81.49
2023-03-15T10:31:44.944Z,81.25
2023-03-15T10:34:50.564Z,81.07
2023-03-15T10:37:53.273Z,80.98
2023-03-15T10:41:00.652Z,80.97
2023-03-15T10:44:08.194Z,81.18
2023-03-15T10:47:24.193Z,81.07
2023-03-15T10:50:31.982Z,81.12
2023-03-15T10:53:35.638Z,81.05
2023-03-15T10:56:47.916Z,80.93
2023-03-15T11:00:06.621Z,80.73
2023-03-15T11:03:17.740Z,80.81
2023-03-15T11:06:29.033Z,80.49
2023-03-15T11:09:41.438Z,80.11
2023-03-15T11:12:47.284Z,80.30
2023-03-15T11:16:03.908Z,80.30
2023-03-15T11:19:16.964Z,80.08
2023-03-15T11:22:19.697Z,79.92
2023-03-15T11:25:26.845Z,80.30
2023-03-15T11:28:32.775Z,80.40
2023-03-15T11:31:46.011Z,80.51
2023-03-15T11:35:17.748Z,80.55
2023-03-15T11:38:33.439Z,80.45
2023-03-15T11:41:41.070Z,80.13
2023-03-15T11:44:47.165Z,80.32
2023-03-15T11:47:54.926Z,80.71
2023-03-15T11:50:59.704Z,80.24
2023-03-15T11:54:13.920Z,80.28
2023-03-15T11:57:51.125Z,79.84
2023-03-15T12:00:57.121Z,79.51
2023-03-15T12:04:33.672Z,79.33
2023-03-15T12:08:00.918Z,79.12
2023-03-15T12:11:11.686Z,78.77
2023-03-15T12:14:31.256Z,77.28
2023-03-15T12:17:45.504Z,78.34
2023-03-15T12:20:57.509Z,78.43
2023-03-15T12:24:17.354Z,78.75
2023-03-15T12:27:23.147Z,78.40
2023-03-15T12:30:31.916Z,78.09
2023-03-15T12:33:46.716Z,77.70
2023-03-15T12:36:54.135Z,77.32
2023-03-15T12:40:04.776Z,76.62
2023-03-15T12:43:08.434Z,76.02
2023-03-15T12:46:47.993Z,75.91
2023-03-15T12:49:50.731Z,74.57
2023-03-15T12:52:53.933Z,74.45
2023-03-15T12:56:08.636Z,73.99
2023-03-15T12:59:31.889Z,73.89
2023-03-15T13:02:43.692Z,73.87
2023-03-15T13:06:03.863Z,73.47
2023-03-15T13:09:20.065Z,72.50
2023-03-15T13:12:32.001Z,72.93
2023-03-15T13:15:42.841Z,73.34
2023-03-15T13:18:53.893Z,73.16
2023-03-15T13:22:18.088Z,73.23
2023-03-15T13:25:35.656Z,73.48
2023-03-15T13:28:42.841Z,72.94
2023-03-15T13:32:02.231Z,73.19
2023-03-15T13:35:05.240Z,73.01
2023-03-15T13:38:26.299Z,72.72
2023-03-15T13:41:30.888Z,72.72
2023-03-15T13:44:35.251Z,72.29
2023-03-15T13:47:38.126Z,71.68
2023-03-15T13:50:40.988Z,70.07
2023-03-15T13:53:50.244Z,70.81
2023-03-15T13:57:07.401Z,70.95
2023-03-15T14:00:14.673Z,71.36
2023-03-15T14:03:23.928Z,71.58
2023-03-15T14:06:29.716Z,71.70
2023-03-15T14:09:32.639Z,71.93
2023-03-15T14:12:35.388Z,71.74
2023-03-15T14:15:44.236Z,71.85
2023-03-15T14:18:51.375Z,70.83
2023-03-15T14:21:56.230Z,70.16
2023-03-15T14:24:59.956Z,69.56
2023-03-15T14:28:03.334Z,69.96
2023-03-15T14:31:08.833Z,69.29
2023-03-15T14:34:23.869Z,68.69
2023-03-15T14:37:31.896Z,68.54
2023-03-15T14:40:36.844Z,68.36
2023-03-15T14:43:39.671Z,68.28
2023-03-15T14:46:43.748Z,68.26
2023-03-15T14:49:47.386Z,67.06
2023-03-15T14:52:51.845Z,66.79
2023-03-15T14:55:54.564Z,67.04
2023-03-15T14:58:57.268Z,66.72
2023-03-15T15:02:03.940Z,66.30
2023-03-15T15:05:19.703Z,66.16
2023-03-15T15:08:23.199Z,65.27
2023-03-15T15:11:26.165Z,64.89
2023-03-15T15:14:28.899Z,63.45
2023-03-15T15:17:32.908Z,58.67
2023-03-15T15:20:35.748Z,59.51
2023-03-15T15:23:54.926Z,67.97
2023-03-15T15:27:00.428Z,69.83
2023-03-15T15:30:04.027Z,72.22
2023-03-15T15:33:08.393Z,74.77
2023-03-15T15:36:14.875Z,74.94
2023-03-15T15:39:22.502Z,77.74
2023-03-15T15:42:25.278Z,80.01
2023-03-15T15:45:28.026Z,81.19
2023-03-15T15:48:32.133Z,82.51
2023-03-15T15:51:38.056Z,81.73
2023-03-15T15:54:41.124Z,82.12
2023-03-15T15:57:45.226Z,81.96
2023-03-15T16:00:47.985Z,81.84
2023-03-15T16:03:52.258Z,80.97
2023-03-15T16:06:58.641Z,80.58
2023-03-15T16:10:01.540Z,80.06
2023-03-15T16:13:05.580Z,79.66
2023-03-15T16:16:13.790Z,79.47
2023-03-15T16:19:17.880Z,79.89
2023-03-15T16:22:23.044Z,81.44
2023-03-15T16:25:33.748Z,82.65
2023-03-15T16:28:41.160Z,84.01
2023-03-15T16:31:43.958Z,84.44
2023-03-15T16:34:48.795Z,84.60
2023-03-15T16:37:56.652Z,85.73
2023-03-15T16:41:01.808Z,86.79
2023-03-15T16:44:06.197Z,88.02
2023-03-15T16:47:10.047Z,89.33
2023-03-15T16:50:14.314Z,90.51
2023-03-15T16:53:17.131Z,91.13
2023-03-15T16:56:20.030Z,91.83
2023-03-15T16:59:22.796Z,92.31
2023-03-15T17:02:27.748Z,92.40
2023-03-15T17:05:33.875Z,93.08
2023-03-15T17:08:37.070Z,93.22
2023-03-15T17:11:42.623Z,93.30
2023-03-15T17:14:45.387Z,93.93
2023-03-15T17:17:48.480Z,94.20
2023-03-15T17:20:52.505Z,94.09
2023-03-15T17:23:55.541Z,94.63
2023-03-15T17:27:02.126Z,94.81
2023-03-15T17:30:17.925Z,94.38
2023-03-15T17:33:20.656Z,94.90
2023-03-15T17:36:27.165Z,94.67
2023-03-15T17:39:29.852Z,94.26
2023-03-15T17:42:32.561Z,93.93
2023-03-15T17:45:35.701Z,94.01
2023-03-15T17:48:38.653Z,93.93
2023-03-15T17:51:43.268Z,93.92
2023-03-15T17:54:47.204Z,93.37
2023-03-15T17:57:55.250Z,93.18
2023-03-15T18:00:58.647Z,93.33
2023-03-15T18:04:02.184Z,93.15
2023-03-15T18:07:06.895Z,92.96
2023-03-15T18:10:12.137Z,93.85
2023-03-15T18:13:17.610Z,93.71
2023-03-15T18:16:20.700Z,93.58
2023-03-15T18:19:23.602Z,93.40
2023-03-15T18:22:27.733Z,93.77
2023-03-15T18:25:32.768Z,93.60
2023-03-15T18:28:35.542Z,93.52
2023-03-15T18:31:38.353Z,93.36
2023-03-15T18:34:41.542Z,93.75
2023-03-15T18:37:45.836Z,94.58
2023-03-15T18:40:51.132Z,94.82
2023-03-15T18:43:53.842Z,94.70
2023-03-15T18:46:56.625Z,94.70
2023-03-15T18:50:09.712Z,94.35
2023-03-15T18:53:14.860Z,94.49
2023-03-15T18:56:21.337Z,94.24
2023-03-15T18:59:25.842Z,94.25
2023-03-15T19:02:28.950Z,94.07
2023-03-15T19:05:35.134Z,94.24
2023-03-15T19:08:39.290Z,94.19
2023-03-15T19:11:43.506Z,94.79
2023-03-15T19:14:46.181Z,95.33
2023-03-15T19:17:55.227Z,96.12
2023-03-15T19:20:57.886Z,96.81
2023-03-15T19:24:05.199Z,97.23
2023-03-15T19:27:07.875Z,97.58
2023-03-15T19:30:18.135Z,97.84
2023-03-15T19:33:24.915Z,97.30
2023-03-15T19:36:27.594Z,97.43
2023-03-15T19:39:31.643Z,97.24
2023-03-15T19:42:37.447Z,96.75
2023-03-15T19:45:40.609Z,96.93
2023-03-15T19:48:43.322Z,96.68
2023-03-15T19:52:11.557Z,96.44
2023-03-15T19:55:17.219Z,96.31
2023-03-15T19:58:19.911Z,96.20
2023-03-15T20:01:24.955Z,96.18
2023-03-15T20:04:28.166Z,96.23
2023-03-15T20:07:33.914Z,95.77
2023-03-15T20:10:38.302Z,95.68
2023-03-15T20:13:42.024Z,95.48
2023-03-15T20:16:44.999Z,95.44
2023-03-15T20:19:50.267Z,95.37
2023-03-15T20:22:52.946Z,95.63
2023-03-15T20:26:07.188Z,95.40
2023-03-15T20:29:09.934Z,95.76
2023-03-15T20:32:16.572Z,96.51
2023-03-15T20:35:21.474Z,97.03
2023-03-15T20:38:26.909Z,97.29
2023-03-15T20:41:30.957Z,97.80
2023-03-15T20:44:33.732Z,98.34
2023-03-15T20:47:37.782Z,98.93
2023-03-15T20:50:41.704Z,99.36
2023-03-15T20:53:44.418Z,99.12
2023-03-15T20:56:51.745Z,98.99
2023-03-15T21:00:01.834Z,99.30
2023-03-15T21:03:04.700Z,98.89
2023-03-15T21:06:09.473Z,98.50
2023-03-15T21:09:12.141Z,99.07
2023-03-15T21:12:16.189Z,98.58
2023-03-15T21:15:19.200Z,98.44
2023-03-15T21:18:23.711Z,98.34
2023-03-15T21:21:26.799Z,98.15
2023-03-15T21:24:31.152Z,97.91
2023-03-15T21:27:35.371Z,97.89
2023-03-15T21:30:42.479Z,97.58
2023-03-15T21:33:45.142Z,97.68
2023-03-15T21:36:47.975Z,97.53
2023-03-15T21:39:54.484Z,97.44
2023-03-15T21:42:58.802Z,97.80
2023-03-15T21:46:07.343Z,98.07
2023-03-15T21:49:12.016Z,98.16
2023-03-15T21:52:16.268Z,98.11
2023-03-15T21:55:19.725Z,97.99
2023-03-15T21:58:24.264Z,97.57
2023-03-15T22:01:27.282Z,97.46
2023-03-15T22:04:30.198Z,97.03
2023-03-15T22:07:32.988Z,97.17
2023-03-15T22:10:36.480Z,97.24
2023-03-15T22:13:41.841Z,97.08
2023-03-15T22:16:44.640Z,97.07
2023-03-15T22:19:49.868Z,96.83
2023-03-15T22:22:52.977Z,97.02
2023-03-15T22:25:57.112Z,97.12
2023-03-15T22:29:03.362Z,97.27
2023-03-15T22:32:06.869Z,97.54
2023-03-15T22:35:09.845Z,98.00
2023-03-15T22:38:12.992Z,98.10
2023-03-15T22:41:15.768Z,98.54
2023-03-15T22:44:20.100Z,98.70
2023-03-15T22:47:22.819Z,98.28
2023-03-15T22:50:25.924Z,97.92
2023-03-15T22:53:29.552Z,97.65
2023-03-15T22:56:32.209Z,97.28
2023-03-15T22:59:36.317Z,96.97
2023-03-15T23:02:39.283Z,96.05
2023-03-15T23:05:46.248Z,96.80
2023-03-15T23:08:48.944Z,97.85
2023-03-15T23:11:51.676Z,98.11
2023-03-15T23:14:55.786Z,97.57
2023-03-15T23:18:02.202Z,97.04
2023-03-15T23:21:06.831Z,97.09
2023-03-15T23:24:10.058Z,97.96
2023-03-15T23:27:13.913Z,97.13
2023-03-15T23:30:18.771Z,96.75
2023-03-15T23:33:22.184Z,97.69
2023-03-15T23:36:24.832Z,98.62
2023-03-15T23:39:29.673Z,98.91
2023-03-15T23:42:32.663Z,99.07
2023-03-15T23:45:38.247Z,98.60
2023-03-15T23:48:42.149Z,98.52
2023-03-15T23:51:46.880Z,98.95
2023-03-15T23:54:58.762Z,99.23
2023-03-15T23:58:02.965Z,99.68
